createdAt,value
2023-05-06T00:00:31.372Z,100096.81
2023-05-06T00:02:57.680Z,100083.81
2023-05-06T00:05:24.067Z,100091.16
2023-05-06T00:07:50.592Z,100088.69
2023-05-06T00:10:16.989Z,100091.59
2023-05-06T00:12:43.354Z,100100.69
2023-05-06T00:15:10.586Z,100083.88
2023-05-06T00:17:37.371Z,100081.75
2023-05-06T00:20:04.523Z,100079.88
2023-05-06T00:22:30.995Z,100084.34
2023-05-06T00:24:57.277Z,100087.25
2023-05-06T00:27:23.540Z,100088.34
2023-05-06T00:29:49.798Z,100084.16
2023-05-06T00:32:16.093Z,100085.84
2023-05-06T00:34:42.899Z,100085.06
2023-05-06T00:37:09.177Z,100083.25
2023-05-06T00:39:35.540Z,100083.31
2023-05-06T00:42:04.823Z,100069.94
2023-05-06T00:44:31.858Z,100071.59
2023-05-06T00:46:59.484Z,100076.25
2023-05-06T00:49:26.100Z,100070.25
2023-05-06T00:51:53.982Z,100078.78
2023-05-06T00:54:20.433Z,100083.50
2023-05-06T00:56:46.856Z,100079.28
2023-05-06T00:59:13.174Z,100087.25
2023-05-06T01:01:40.633Z,100088.44
2023-05-06T01:04:08.642Z,100084.28
2023-05-06T01:07:01.761Z,100078.28
2023-05-06T01:09:33.877Z,100077.47
2023-05-06T01:12:09.581Z,100080.22
2023-05-06T01:14:46.538Z,100066.50
2023-05-06T01:17:16.637Z,100094.00
2023-05-06T01:19:53.266Z,100089.47
2023-05-06T01:22:19.976Z,100089.63
2023-05-06T01:24:49.363Z,100087.22
2023-05-06T01:27:16.753Z,100082.97
2023-05-06T01:29:45.301Z,100083.97
2023-05-06T01:32:34.634Z,100083.38
2023-05-06T01:35:15.967Z,100085.13
2023-05-06T01:38:37.906Z,100085.22
2023-05-06T01:41:04.625Z,100084.53
2023-05-06T01:43:37.556Z,100087.19
2023-05-06T01:46:04.622Z,100083.63
2023-05-06T01:48:33.671Z,100085.50
2023-05-06T01:50:59.999Z,100088.28
2023-05-06T01:53:26.661Z,100093.72
2023-05-06T01:55:52.936Z,100090.38
2023-05-06T01:58:19.272Z,100099.41
2023-05-06T02:00:45.551Z,100089.53
2023-05-06T02:03:12.367Z,100082.44
2023-05-06T02:05:38.767Z,100095.66
2023-05-06T02:08:05.122Z,100093.00
2023-05-06T02:10:31.443Z,100089.56
2023-05-06T02:12:57.797Z,100096.63
2023-05-06T02:15:24.186Z,100089.44
2023-05-06T02:17:50.593Z,100096.41
2023-05-06T02:20:16.940Z,100098.94
2023-05-06T02:22:43.465Z,100098.22
2023-05-06T02:25:10.151Z,100110.63
2023-05-06T02:27:36.780Z,100101.91
2023-05-06T02:30:03.586Z,100100.31
2023-05-06T02:32:29.901Z,100105.66
2023-05-06T02:34:56.218Z,100101.25
2023-05-06T02:37:22.601Z,100107.47
2023-05-06T02:39:48.930Z,100107.78
2023-05-06T02:42:15.982Z,100109.81
2023-05-06T02:44:42.374Z,100116.00
2023-05-06T02:47:08.651Z,100121.53
2023-05-06T02:49:34.943Z,100117.00
2023-05-06T02:52:01.235Z,100109.31
2023-05-06T02:54:27.629Z,100108.22
2023-05-06T02:56:53.975Z,100117.50
2023-05-06T02:59:20.960Z,100111.50
2023-05-06T03:01:47.840Z,100112.50
2023-05-06T03:04:14.458Z,100104.56
2023-05-06T03:06:40.808Z,100101.09
2023-05-06T03:09:07.200Z,100103.00
2023-05-06T03:11:33.490Z,100103.19
2023-05-06T03:13:59.787Z,100101.59
2023-05-06T03:16:26.423Z,100111.34
2023-05-06T03:18:52.769Z,100108.03
2023-05-06T03:21:19.096Z,100113.50
2023-05-06T03:23:45.570Z,100109.97
2023-05-06T03:26:11.907Z,100105.69
2023-05-06T03:28:38.241Z,100109.38
2023-05-06T03:31:04.633Z,100107.66
2023-05-06T03:33:30.935Z,100106.28
2023-05-06T03:35:57.266Z,100104.53
2023-05-06T03:38:23.582Z,100113.50
2023-05-06T03:40:50.438Z,100105.69
2023-05-06T03:43:16.760Z,100114.72
2023-05-06T03:45:43.192Z,100108.81
2023-05-06T03:48:09.634Z,100113.28
2023-05-06T03:50:36.062Z,100122.13
2023-05-06T03:53:02.596Z,100123.91
2023-05-06T03:55:29.340Z,100125.06
2023-05-06T03:57:55.643Z,100123.38
2023-05-06T04:00:21.955Z,100126.03
2023-05-06T04:02:48.592Z,100119.75
2023-05-06T04:05:15.216Z,100130.41
2023-05-06T04:07:41.531Z,100126.78
2023-05-06T04:10:08.581Z,100118.97
2023-05-06T04:12:34.922Z,100120.84
2023-05-06T04:15:01.227Z,100126.22
2023-05-06T04:17:27.507Z,100123.50
2023-05-06T04:19:53.924Z,100113.66
2023-05-06T04:22:20.577Z,100116.13
2023-05-06T04:24:46.793Z,100119.84
2023-05-06T04:27:13.092Z,100119.63
2023-05-06T04:29:39.412Z,100122.22
2023-05-06T04:32:05.984Z,100119.56
2023-05-06T04:34:32.420Z,100115.03
2023-05-06T04:36:59.275Z,100126.50
2023-05-06T04:39:25.539Z,100125.56
2023-05-06T04:41:51.865Z,100127.41
2023-05-06T04:44:19.398Z,100132.69
2023-05-06T04:46:46.065Z,100124.69
2023-05-06T04:49:12.690Z,100130.84
2023-05-06T04:51:39.075Z,100133.44
2023-05-06T04:54:05.440Z,100134.19
2023-05-06T04:56:31.788Z,100142.81
2023-05-06T04:58:58.153Z,100141.69
2023-05-06T05:01:24.541Z,100141.63
2023-05-06T05:03:50.917Z,100142.31
2023-05-06T05:06:17.295Z,100158.13
2023-05-06T05:08:43.586Z,100156.16
2023-05-06T05:11:10.212Z,100160.94
2023-05-06T05:13:40.028Z,100168.31
2023-05-06T05:16:06.598Z,100166.28
2023-05-06T05:18:32.902Z,100169.72
2023-05-06T05:20:59.162Z,100168.91
2023-05-06T05:23:25.509Z,100171.28
2023-05-06T05:25:51.834Z,100164.75
2023-05-06T05:28:18.207Z,100176.06
2023-05-06T05:30:44.558Z,100179.47
2023-05-06T05:33:11.104Z,100170.56
2023-05-06T05:35:37.428Z,100176.56
2023-05-06T05:38:03.742Z,100178.91
2023-05-06T05:40:30.089Z,100177.84
2023-05-06T05:42:56.429Z,100179.56
2023-05-06T05:45:22.724Z,100171.34
2023-05-06T05:47:49.124Z,100175.63
2023-05-06T05:50:15.488Z,100168.69
2023-05-06T05:52:41.753Z,100172.06
2023-05-06T05:55:08.688Z,100170.28
2023-05-06T05:57:35.347Z,100157.84
2023-05-06T06:00:01.631Z,100175.41
2023-05-06T06:02:27.985Z,100171.56
2023-05-06T06:04:54.405Z,100164.25
2023-05-06T06:07:20.821Z,100167.81
2023-05-06T06:09:48.736Z,100167.72
2023-05-06T06:12:15.357Z,100164.94
2023-05-06T06:14:47.861Z,100168.25
2023-05-06T06:17:15.233Z,100167.97
2023-05-06T06:19:41.571Z,100171.31
2023-05-06T06:22:08.063Z,100173.56
2023-05-06T06:24:34.820Z,100172.50
2023-05-06T06:27:01.464Z,100173.00
2023-05-06T06:29:27.862Z,100175.59
2023-05-06T06:31:58.148Z,100174.81
2023-05-06T06:34:25.295Z,100176.47
2023-05-06T06:36:51.627Z,100177.72
2023-05-06T06:39:17.917Z,100175.31
2023-05-06T06:41:44.235Z,100176.72
2023-05-06T06:44:10.527Z,100177.13
2023-05-06T06:46:36.906Z,100178.66
2023-05-06T06:49:03.272Z,100175.75
2023-05-06T06:51:29.681Z,100175.25
2023-05-06T06:53:56.216Z,100173.88
2023-05-06T06:56:23.034Z,100182.25
2023-05-06T06:58:50.773Z,100176.22
2023-05-06T07:01:18.752Z,100177.38
2023-05-06T07:03:45.180Z,100180.34
2023-05-06T07:06:11.516Z,100181.44
2023-05-06T07:08:37.922Z,100178.91
2023-05-06T07:11:04.148Z,100183.38
2023-05-06T07:13:30.423Z,100178.63
2023-05-06T07:15:56.792Z,100186.91
2023-05-06T07:18:23.149Z,100182.00
2023-05-06T07:20:49.580Z,100181.34
2023-05-06T07:23:15.935Z,100182.84
2023-05-06T07:25:42.246Z,100186.94
2023-05-06T07:28:08.625Z,100187.34
2023-05-06T07:30:37.186Z,100182.28
2023-05-06T07:33:03.550Z,100189.16
2023-05-06T07:35:30.003Z,100183.88
2023-05-06T07:37:56.409Z,100191.88
2023-05-06T07:40:22.645Z,100190.94
2023-05-06T07:42:48.942Z,100187.22
2023-05-06T07:45:15.370Z,100179.34
2023-05-06T07:47:41.868Z,100180.13
2023-05-06T07:50:08.539Z,100169.44
2023-05-06T07:52:34.830Z,100165.81
2023-05-06T07:55:01.384Z,100179.38
2023-05-06T07:57:27.742Z,100176.59
2023-05-06T07:59:54.265Z,100176.31
2023-05-06T08:02:20.591Z,100171.97
2023-05-06T08:04:47.960Z,100168.94
2023-05-06T08:07:15.993Z,100164.63
2023-05-06T08:09:42.379Z,100165.91
2023-05-06T08:12:08.773Z,100163.84
2023-05-06T08:14:35.141Z,100167.50
2023-05-06T08:17:01.630Z,100166.25
2023-05-06T08:19:28.127Z,100177.25
2023-05-06T08:21:54.529Z,100170.03
2023-05-06T08:24:20.982Z,100173.28
2023-05-06T08:26:47.366Z,100173.63
2023-05-06T08:29:13.751Z,100171.84
2023-05-06T08:31:40.110Z,100180.78
2023-05-06T08:34:06.447Z,100178.56
2023-05-06T08:36:32.769Z,100182.31
2023-05-06T08:38:59.052Z,100182.75
2023-05-06T08:41:26.353Z,100179.28
2023-05-06T08:43:54.213Z,100179.81
2023-05-06T08:46:20.632Z,100183.25
2023-05-06T08:48:47.019Z,100181.72
2023-05-06T08:51:15.262Z,100183.31
2023-05-06T08:53:47.561Z,100184.25
2023-05-06T08:56:14.932Z,100180.25
2023-05-06T08:58:45.300Z,100178.09
2023-05-06T09:01:12.177Z,100179.81
2023-05-06T09:03:38.626Z,100178.94
2023-05-06T09:06:05.129Z,100181.63
2023-05-06T09:08:31.484Z,100174.06
2023-05-06T09:10:57.777Z,100177.81
2023-05-06T09:13:24.576Z,100171.69
2023-05-06T09:15:53.787Z,100174.59
2023-05-06T09:18:20.302Z,100172.66
2023-05-06T09:20:49.576Z,100171.56
2023-05-06T09:23:17.103Z,100167.19
2023-05-06T09:25:45.774Z,100170.69
2023-05-06T09:28:13.280Z,100169.00
2023-05-06T09:30:41.745Z,100162.97
2023-05-06T09:33:09.137Z,100160.59
2023-05-06T09:35:40.235Z,100165.16
2023-05-06T09:38:07.640Z,100166.19
2023-05-06T09:40:38.521Z,100157.69
2023-05-06T09:43:05.673Z,100151.97
2023-05-06T09:45:32.627Z,100156.03
2023-05-06T09:47:59.130Z,100154.75
2023-05-06T09:50:26.353Z,100152.78
2023-05-06T09:52:52.728Z,100144.09
2023-05-06T09:55:20.647Z,100159.22
2023-05-06T09:57:48.457Z,100168.28
2023-05-06T10:00:16.501Z,100166.50
2023-05-06T10:02:44.448Z,100162.13
2023-05-06T10:05:12.989Z,100159.34
2023-05-06T10:07:41.397Z,100154.28
2023-05-06T10:10:11.734Z,100157.53
2023-05-06T10:12:38.233Z,100156.28
2023-05-06T10:15:05.769Z,100164.13
2023-05-06T10:17:32.686Z,100154.97
2023-05-06T10:20:01.076Z,100155.66
2023-05-06T10:22:52.182Z,100164.50
2023-05-06T10:25:35.276Z,100144.69
2023-05-06T10:28:06.146Z,100137.31
2023-05-06T10:30:34.665Z,100134.06
2023-05-06T10:33:07.109Z,100126.34
2023-05-06T10:35:44.409Z,100133.25
2023-05-06T10:38:35.182Z,100131.41
2023-05-06T10:41:03.148Z,100124.97
2023-05-06T10:43:31.283Z,100118.06
2023-05-06T10:46:02.598Z,100112.06
2023-05-06T10:48:29.935Z,100119.38
2023-05-06T10:51:21.151Z,100116.94
2023-05-06T10:54:06.976Z,100108.91
2023-05-06T10:56:37.313Z,100109.50
2023-05-06T10:59:09.591Z,100102.06
2023-05-06T11:01:37.359Z,100101.47
2023-05-06T11:04:15.110Z,100105.22
2023-05-06T11:06:42.357Z,100102.63
2023-05-06T11:09:22.033Z,100095.31
2023-05-06T11:11:49.278Z,100093.06
2023-05-06T11:14:25.693Z,100093.47
2023-05-06T11:16:53.297Z,100091.06
2023-05-06T11:19:25.488Z,100088.75
2023-05-06T11:21:57.359Z,100089.44
2023-05-06T11:24:26.285Z,100078.03
2023-05-06T11:26:53.313Z,100080.53
2023-05-06T11:29:19.970Z,100076.34
2023-05-06T11:31:46.906Z,100086.38
2023-05-06T11:34:20.292Z,100083.03
2023-05-06T11:37:00.627Z,100089.50
2023-05-06T11:39:38.684Z,100087.59
2023-05-06T11:42:07.878Z,100084.75
2023-05-06T11:44:36.761Z,100080.03
2023-05-06T11:47:11.927Z,100079.91
2023-05-06T11:49:43.100Z,100077.72
2023-05-06T11:52:11.191Z,100087.00
2023-05-06T11:54:42.431Z,100074.66
2023-05-06T11:57:09.614Z,100070.28
2023-05-06T11:59:37.888Z,100074.56
2023-05-06T12:02:06.614Z,100075.16
2023-05-06T12:04:44.587Z,100079.31
2023-05-06T12:07:13.254Z,100077.59
2023-05-06T12:09:42.811Z,100079.47
2023-05-06T12:12:10.464Z,100084.91
2023-05-06T12:14:38.306Z,100074.03
2023-05-06T12:17:05.322Z,100080.59
2023-05-06T12:19:32.362Z,100082.59
2023-05-06T12:22:18.246Z,100077.25
2023-05-06T12:24:45.733Z,100073.91
2023-05-06T12:27:12.084Z,100064.03
2023-05-06T12:29:38.566Z,100070.44
2023-05-06T12:32:11.717Z,100063.19
2023-05-06T12:34:39.976Z,100064.31
2023-05-06T12:37:07.755Z,100066.84
2023-05-06T12:39:36.076Z,100067.84
2023-05-06T12:42:02.465Z,100066.53
2023-05-06T12:44:36.596Z,100055.06
2023-05-06T12:47:08.120Z,100060.38
2023-05-06T12:50:04.041Z,100064.38
2023-05-06T12:52:30.642Z,100047.88
2023-05-06T12:54:57.428Z,100054.34
2023-05-06T12:57:23.748Z,100047.63
2023-05-06T12:59:50.610Z,100049.13
2023-05-06T13:02:17.047Z,100050.13
2023-05-06T13:04:44.164Z,100038.84
2023-05-06T13:07:10.539Z,100036.22
2023-05-06T13:09:36.831Z,100045.38
2023-05-06T13:12:04.923Z,100045.63
2023-05-06T13:14:31.228Z,100041.97
2023-05-06T13:17:00.770Z,100037.00
2023-05-06T13:21:58.616Z,100029.25
2023-05-06T13:24:24.943Z,100037.38
2023-05-06T13:26:52.149Z,100031.34
2023-05-06T13:29:18.975Z,100026.41
2023-05-06T13:31:45.273Z,100025.69
2023-05-06T13:34:11.653Z,100025.13
2023-05-06T13:36:38.780Z,100015.91
2023-05-06T13:39:05.101Z,100009.63
2023-05-06T13:41:31.826Z,100009.91
2023-05-06T13:43:58.114Z,100018.22
2023-05-06T13:46:24.443Z,100011.38
2023-05-06T13:48:51.074Z,100005.25
2023-05-06T13:51:17.439Z,100010.38
2023-05-06T13:53:43.878Z,99998.34
2023-05-06T13:56:10.143Z,100001.88
2023-05-06T13:58:36.622Z,100000.31
2023-05-06T14:01:03.587Z,100000.63
2023-05-06T14:03:29.978Z,99998.63
2023-05-06T14:05:56.308Z,99993.34
2023-05-06T14:08:22.709Z,99992.06
2023-05-06T14:10:48.995Z,99987.31
2023-05-06T14:13:15.399Z,99986.69
2023-05-06T14:15:41.800Z,99979.38
2023-05-06T14:18:08.334Z,99980.84
2023-05-06T14:20:34.703Z,99980.13
2023-05-06T14:23:01.160Z,99976.56
2023-05-06T14:25:27.968Z,99978.25
2023-05-06T14:27:54.873Z,99969.88
2023-05-06T14:30:21.427Z,99972.44
2023-05-06T14:32:47.849Z,99972.09
2023-05-06T14:35:14.172Z,99961.56
2023-05-06T14:37:40.817Z,99965.16
2023-05-06T14:40:07.895Z,99964.13
2023-05-06T14:42:35.685Z,99965.16
2023-05-06T14:45:02.657Z,99964.41
2023-05-06T14:47:29.008Z,99957.47
2023-05-06T14:49:55.355Z,99964.41
2023-05-06T14:52:21.664Z,99969.66
2023-05-06T14:54:47.986Z,99962.59
2023-05-06T14:57:14.299Z,99961.53
2023-05-06T14:59:40.857Z,99963.81
2023-05-06T15:02:09.675Z,99960.91
2023-05-06T15:04:36.562Z,99959.13
2023-05-06T15:07:03.352Z,99967.63
2023-05-06T15:09:29.714Z,99970.28
2023-05-06T15:11:56.056Z,99965.88
2023-05-06T15:14:22.347Z,99959.72
2023-05-06T15:16:48.714Z,99966.22
2023-05-06T15:19:15.156Z,99967.47
2023-05-06T15:21:41.466Z,99965.81
2023-05-06T15:24:08.079Z,99966.69
2023-05-06T15:26:34.406Z,99973.53
2023-05-06T15:29:00.760Z,99969.25
2023-05-06T15:31:27.162Z,99967.63
2023-05-06T15:33:53.473Z,99972.38
2023-05-06T15:36:19.751Z,99975.03
2023-05-06T15:38:51.957Z,99979.41
2023-05-06T15:41:19.156Z,99975.50
2023-05-06T15:43:45.532Z,99974.31
2023-05-06T15:46:11.854Z,99970.59
2023-05-06T15:48:38.152Z,99973.91
2023-05-06T15:51:04.458Z,99963.00
2023-05-06T15:53:30.758Z,99978.53
2023-05-06T15:56:03.556Z,99977.06
2023-05-06T15:58:40.953Z,99981.06
2023-05-06T16:01:08.574Z,99974.78
2023-05-06T16:03:36.205Z,99976.59
2023-05-06T16:06:02.649Z,99982.53
2023-05-06T16:08:29.173Z,99972.25
2023-05-06T16:10:55.649Z,99984.16
2023-05-06T16:13:22.021Z,99978.09
2023-05-06T16:15:48.747Z,99980.78
2023-05-06T16:18:15.071Z,99981.44
2023-05-06T16:20:41.487Z,99987.59
2023-05-06T16:23:07.964Z,99986.34
2023-05-06T16:25:34.685Z,99980.81
2023-05-06T16:28:01.004Z,99977.97
2023-05-06T16:30:27.302Z,99970.59
2023-05-06T16:32:53.629Z,99972.69
2023-05-06T16:35:20.256Z,99971.47
2023-05-06T16:37:46.530Z,99961.03
2023-05-06T16:40:14.118Z,99969.13
2023-05-06T16:42:40.443Z,99969.00
2023-05-06T16:45:07.490Z,99965.91
2023-05-06T16:47:33.919Z,99971.31
2023-05-06T16:50:01.071Z,99977.81
2023-05-06T16:52:30.083Z,99971.78
2023-05-06T16:54:57.209Z,99965.91
2023-05-06T16:57:23.589Z,99964.78
2023-05-06T16:59:50.406Z,99965.16
2023-05-06T17:02:16.812Z,99957.22
2023-05-06T17:04:43.110Z,99953.88
2023-05-06T17:07:11.066Z,99971.06
2023-05-06T17:09:38.474Z,99969.69
2023-05-06T17:12:05.535Z,99957.03
2023-05-06T17:14:31.794Z,99968.66
2023-05-06T17:17:02.038Z,99949.13
2023-05-06T17:19:28.585Z,99951.63
2023-05-06T17:21:55.171Z,99948.69
2023-05-06T17:24:21.672Z,99956.66
2023-05-06T17:26:48.013Z,99953.34
2023-05-06T17:29:14.347Z,99962.63
2023-05-06T17:31:40.640Z,99957.59
2023-05-06T17:34:07.403Z,99959.53
2023-05-06T17:36:33.733Z,99962.59
2023-05-06T17:39:04.935Z,99955.59
2023-05-06T17:41:31.919Z,99953.00
2023-05-06T17:43:58.295Z,99959.50
2023-05-06T17:46:24.685Z,99949.63
2023-05-06T17:48:51.047Z,99958.72
2023-05-06T17:51:19.007Z,99959.91
2023-05-06T17:53:45.377Z,99954.88
2023-05-06T17:56:11.681Z,99969.56
2023-05-06T17:58:38.052Z,99959.09
2023-05-06T18:01:04.404Z,99962.03
2023-05-06T18:03:30.805Z,99959.53
2023-05-06T18:05:58.172Z,99959.00
2023-05-06T18:08:24.454Z,99955.44
2023-05-06T18:10:50.750Z,99956.63
2023-05-06T18:13:17.261Z,99960.63
2023-05-06T18:15:43.666Z,99959.25
2023-05-06T18:18:10.054Z,99954.19
2023-05-06T18:20:36.534Z,99963.47
2023-05-06T18:23:02.850Z,99966.41
2023-05-06T18:25:29.216Z,99963.91
2023-05-06T18:27:55.532Z,99965.22
2023-05-06T18:30:21.949Z,99963.81
2023-05-06T18:32:51.026Z,99962.44
2023-05-06T18:35:18.200Z,99961.66
2023-05-06T18:37:44.414Z,99973.34
2023-05-06T18:40:11.221Z,99971.81
2023-05-06T18:42:37.613Z,99964.94
2023-05-06T18:45:06.670Z,99970.53
2023-05-06T18:47:33.087Z,99968.06
2023-05-06T18:50:00.615Z,99965.78
2023-05-06T18:52:27.160Z,99963.34
2023-05-06T18:54:53.458Z,99967.06
2023-05-06T18:57:19.906Z,99975.38
2023-05-06T18:59:46.219Z,99968.59
2023-05-06T19:02:12.446Z,99970.63
2023-05-06T19:04:38.755Z,99969.41
2023-05-06T19:07:04.991Z,99977.59
2023-05-06T19:09:36.616Z,99984.47
2023-05-06T19:12:03.992Z,99982.22
2023-05-06T19:14:32.231Z,99979.94
2023-05-06T19:16:58.570Z,99980.22
2023-05-06T19:19:24.851Z,99983.22
2023-05-06T19:21:51.076Z,99987.75
2023-05-06T19:24:17.721Z,99991.63
2023-05-06T19:26:44.836Z,99991.72
2023-05-06T19:29:11.111Z,99992.03
2023-05-06T19:31:37.450Z,99992.13
2023-05-06T19:34:03.919Z,99987.28
2023-05-06T19:36:30.466Z,99992.97
2023-05-06T19:38:56.769Z,99999.41
2023-05-06T19:41:23.064Z,99991.44
2023-05-06T19:43:51.181Z,99997.88
2023-05-06T19:46:18.426Z,100000.88
2023-05-06T19:48:45.828Z,100007.41
2023-05-06T19:51:12.173Z,100002.75
2023-05-06T19:53:38.424Z,100012.41
2023-05-06T19:56:12.368Z,100011.88
2023-05-06T19:58:40.436Z,100016.66
2023-05-06T20:01:06.819Z,100018.78
2023-05-06T20:03:33.388Z,100014.56
2023-05-06T20:05:59.756Z,100019.94
2023-05-06T20:08:26.596Z,100019.06
2023-05-06T20:10:53.220Z,100019.47
2023-05-06T20:13:19.715Z,100017.47
2023-05-06T20:15:46.089Z,100009.88
2023-05-06T20:18:12.373Z,100016.31
2023-05-06T20:20:39.824Z,100018.31
2023-05-06T20:23:06.513Z,100013.16
2023-05-06T20:25:33.876Z,100013.34
2023-05-06T20:28:00.196Z,100013.44
2023-05-06T20:30:26.516Z,100015.47
2023-05-06T20:32:52.916Z,100014.91
2023-05-06T20:35:19.169Z,100009.59
2023-05-06T20:37:45.548Z,100016.03
2023-05-06T20:40:12.516Z,100017.06
2023-05-06T20:42:38.852Z,100009.41
2023-05-06T20:45:05.459Z,100014.97
2023-05-06T20:47:31.843Z,100014.28
2023-05-06T20:49:58.238Z,100018.88
2023-05-06T20:52:24.590Z,100020.22
2023-05-06T20:54:50.998Z,100020.22
2023-05-06T20:57:17.563Z,100017.63
2023-05-06T20:59:44.321Z,100022.31
2023-05-06T21:02:10.782Z,100018.00
2023-05-06T21:04:37.297Z,100022.72
2023-05-06T21:07:03.605Z,100026.34
2023-05-06T21:09:30.003Z,100012.47
2023-05-06T21:11:56.253Z,100025.63
2023-05-06T21:14:25.990Z,100018.72
2023-05-06T21:16:52.950Z,100019.84
2023-05-06T21:19:19.497Z,100031.47
2023-05-06T21:21:45.857Z,100022.03
2023-05-06T21:24:12.844Z,100025.09
2023-05-06T21:26:39.695Z,100030.72
2023-05-06T21:29:06.010Z,100030.06
2023-05-06T21:31:32.364Z,100037.59
2023-05-06T21:33:58.794Z,100035.09
2023-05-06T21:36:25.906Z,100034.47
2023-05-06T21:39:06.783Z,100033.97
2023-05-06T21:41:35.465Z,100033.31
2023-05-06T21:44:05.703Z,100031.75
2023-05-06T21:46:32.723Z,100036.34
2023-05-06T21:49:00.275Z,100031.50
2023-05-06T21:51:34.495Z,100039.03
2023-05-06T21:54:12.480Z,100031.41
2023-05-06T21:56:38.882Z,100031.78
2023-05-06T21:59:06.238Z,100024.09
2023-05-06T22:01:32.648Z,100026.16
2023-05-06T22:03:59.047Z,100026.25
2023-05-06T22:06:25.454Z,100021.06
2023-05-06T22:08:51.962Z,100024.75
2023-05-06T22:11:18.380Z,100018.75
2023-05-06T22:13:44.596Z,100018.16
2023-05-06T22:16:11.015Z,100012.34
2023-05-06T22:18:41.425Z,100015.22
2023-05-06T22:21:08.601Z,100014.84
2023-05-06T22:23:35.101Z,100010.53
2023-05-06T22:26:01.452Z,100013.28
2023-05-06T22:28:27.820Z,100012.50
2023-05-06T22:30:54.120Z,100000.56
2023-05-06T22:33:20.595Z,100002.06
2023-05-06T22:35:46.843Z,100002.06
2023-05-06T22:38:13.181Z,100006.69
2023-05-06T22:40:39.465Z,100008.53
2023-05-06T22:43:05.965Z,100006.00
2023-05-06T22:45:32.503Z,100000.75
2023-05-06T22:47:58.921Z,100011.44
2023-05-06T22:50:25.392Z,100008.25
2023-05-06T22:52:51.720Z,100016.28
2023-05-06T22:55:18.065Z,100018.25
2023-05-06T22:57:44.721Z,100014.84
2023-05-06T23:00:12.592Z,100018.31
2023-05-06T23:02:39.745Z,100015.56
2023-05-06T23:05:06.468Z,100014.78
2023-05-06T23:07:32.885Z,100010.13
2023-05-06T23:09:59.615Z,100012.72
2023-05-06T23:12:26.063Z,100008.38
2023-05-06T23:14:52.260Z,100008.06
2023-05-06T23:17:18.547Z,100009.69
2023-05-06T23:19:45.920Z,100019.28
2023-05-06T23:22:12.415Z,100012.31
2023-05-06T23:24:38.894Z,100014.13
2023-05-06T23:27:05.294Z,100016.81
2023-05-06T23:29:31.664Z,100010.66
2023-05-06T23:31:57.939Z,100006.25
2023-05-06T23:34:24.272Z,100011.78
2023-05-06T23:36:51.053Z,100008.25
2023-05-06T23:39:17.468Z,100001.31
2023-05-06T23:41:43.778Z,100013.50
2023-05-06T23:44:10.230Z,100002.19
2023-05-06T23:46:36.649Z,100017.06
2023-05-06T23:49:03.071Z,100000.22
2023-05-06T23:51:29.313Z,100019.63
2023-05-06T23:53:55.689Z,100005.38
2023-05-06T23:56:22.042Z,100002.78
2023-05-06T23:58:48.323Z,100013.25
